sensor_id;sensor_type;location;lat;lon;timestamp;P1;durP1;ratioP1;P2;durP2;ratioP2
51467;SDS011;37545;45.302;-122.946;2022-11-18T00:01:47;8.10;;;3.08;;
51467;SDS011;37545;45.302;-122.946;2022-11-18T00:04:16;7.18;;;2.60;;
51467;SDS011;37545;45.302;-122.946;2022-11-18T00:06:45;5.00;;;2.40;;
51467;SDS011;37545;45.302;-122.946;2022-11-18T00:09:13;6.25;;;2.65;;
51467;SDS011;37545;45.302;-122.946;2022-11-18T00:11:44;8.85;;;3.17;;
51467;SDS011;37545;45.302;-122.946;2022-11-18T00:14:29;6.35;;;2.55;;
51467;SDS011;37545;45.302;-122.946;2022-11-18T00:16:58;9.35;;;2.95;;
51467;SDS011;37545;45.302;-122.946;2022-11-18T00:19:28;5.90;;;2.45;;
51467;SDS011;37545;45.302;-122.946;2022-11-18T00:21:59;6.57;;;2.75;;
51467;SDS011;37545;45.302;-122.946;2022-11-18T00:24:28;6.95;;;2.53;;
51467;SDS011;37545;45.302;-122.946;2022-11-18T00:26:59;6.90;;;3.33;;
51467;SDS011;37545;45.302;-122.946;2022-11-18T00:29:28;7.32;;;3.00;;
51467;SDS011;37545;45.302;-122.946;2022-11-18T00:31:57;3.95;;;2.33;;
51467;SDS011;37545;45.302;-122.946;2022-11-18T00:34:25;5.40;;;2.67;;
51467;SDS011;37545;45.302;-122.946;2022-11-18T00:36:54;5.90;;;2.65;;
51467;SDS011;37545;45.302;-122.946;2022-11-18T00:39:23;9.68;;;2.90;;
51467;SDS011;37545;45.302;-122.946;2022-11-18T00:41:52;7.68;;;2.60;;
51467;SDS011;37545;45.302;-122.946;2022-11-18T00:44:39;5.55;;;2.78;;
51467;SDS011;37545;45.302;-122.946;2022-11-18T00:47:07;6.82;;;2.85;;
51467;SDS011;37545;45.302;-122.946;2022-11-18T00:49:36;7.03;;;2.72;;
51467;SDS011;37545;45.302;-122.946;2022-11-18T00:52:05;6.90;;;2.60;;
51467;SDS011;37545;45.302;-122.946;2022-11-18T00:54:34;5.45;;;2.75;;
51467;SDS011;37545;45.302;-122.946;2022-11-18T00:57:02;7.40;;;2.85;;
51467;SDS011;37545;45.302;-122.946;2022-11-18T00:59:31;4.07;;;1.85;;
51467;SDS011;37545;45.302;-122.946;2022-11-18T01:02:01;6.55;;;2.50;;
51467;SDS011;37545;45.302;-122.946;2022-11-18T01:04:30;6.72;;;3.35;;
51467;SDS011;37545;45.302;-122.946;2022-11-18T01:06:59;8.77;;;3.00;;
51467;SDS011;37545;45.302;-122.946;2022-11-18T01:09:31;5.57;;;2.08;;
51467;SDS011;37545;45.302;-122.946;2022-11-18T01:11:59;4.95;;;2.25;;
51467;SDS011;37545;45.302;-122.946;2022-11-18T01:14:44;3.00;;;2.65;;
51467;SDS011;37545;45.302;-122.946;2022-11-18T01:17:15;7.78;;;2.80;;
51467;SDS011;37545;45.302;-122.946;2022-11-18T01:19:43;4.45;;;2.42;;
51467;SDS011;37545;45.302;-122.946;2022-11-18T01:22:12;8.80;;;2.40;;
51467;SDS011;37545;45.302;-122.946;2022-11-18T01:24:43;5.45;;;2.35;;
51467;SDS011;37545;45.302;-122.946;2022-11-18T01:27:12;4.60;;;2.08;;
51467;SDS011;37545;45.302;-122.946;2022-11-18T01:29:41;5.40;;;2.60;;
51467;SDS011;37545;45.302;-122.946;2022-11-18T01:32:10;4.68;;;2.45;;
51467;SDS011;37545;45.302;-122.946;2022-11-18T01:34:40;6.75;;;2.90;;
51467;SDS011;37545;45.302;-122.946;2022-11-18T01:37:09;4.45;;;2.45;;
51467;SDS011;37545;45.302;-122.946;2022-11-18T01:39:37;4.65;;;2.10;;
51467;SDS011;37545;45.302;-122.946;2022-11-18T01:42:10;7.13;;;2.50;;
51467;SDS011;37545;45.302;-122.946;2022-11-18T01:47:43;4.80;;;2.13;;
51467;SDS011;37545;45.302;-122.946;2022-11-18T01:50:16;6.03;;;2.47;;
51467;SDS011;37545;45.302;-122.946;2022-11-18T01:52:48;5.00;;;2.45;;
51467;SDS011;37545;45.302;-122.946;2022-11-18T01:55:21;5.97;;;2.55;;
51467;SDS011;37545;45.302;-122.946;2022-11-18T01:57:53;7.15;;;2.53;;
51467;SDS011;37545;45.302;-122.946;2022-11-18T02:00:28;5.25;;;2.15;;
51467;SDS011;37545;45.302;-122.946;2022-11-18T02:02:56;4.82;;;2.05;;
51467;SDS011;37545;45.302;-122.946;2022-11-18T02:05:29;6.60;;;2.70;;
51467;SDS011;37545;45.302;-122.946;2022-11-18T02:08:00;7.18;;;2.92;;
51467;SDS011;37545;45.302;-122.946;2022-11-18T02:10:29;7.40;;;2.50;;
51467;SDS011;37545;45.302;-122.946;2022-11-18T02:12:58;6.97;;;2.47;;
51467;SDS011;37545;45.302;-122.946;2022-11-18T02:15:32;5.70;;;2.25;;
51467;SDS011;37545;45.302;-122.946;2022-11-18T02:18:13;4.68;;;2.35;;
51467;SDS011;37545;45.302;-122.946;2022-11-18T02:20:53;4.53;;;2.30;;
51467;SDS011;37545;45.302;-122.946;2022-11-18T02:29:19;6.43;;;2.47;;
51467;SDS011;37545;45.302;-122.946;2022-11-18T02:31:55;4.63;;;2.03;;
51467;SDS011;37545;45.302;-122.946;2022-11-18T02:34:32;4.50;;;2.53;;
51467;SDS011;37545;45.302;-122.946;2022-11-18T02:37:08;4.43;;;2.58;;
51467;SDS011;37545;45.302;-122.946;2022-11-18T02:39:46;6.65;;;2.53;;
51467;SDS011;37545;45.302;-122.946;2022-11-18T02:42:19;5.88;;;2.35;;
51467;SDS011;37545;45.302;-122.946;2022-11-18T02:44:54;3.92;;;2.03;;
51467;SDS011;37545;45.302;-122.946;2022-11-18T02:47:25;5.28;;;2.58;;
51467;SDS011;37545;45.302;-122.946;2022-11-18T02:49:57;6.25;;;2.42;;
51467;SDS011;37545;45.302;-122.946;2022-11-18T02:52:30;4.80;;;2.45;;
51467;SDS011;37545;45.302;-122.946;2022-11-18T02:55:02;6.43;;;2.25;;
51467;SDS011;37545;45.302;-122.946;2022-11-18T02:57:35;4.75;;;2.20;;
51467;SDS011;37545;45.302;-122.946;2022-11-18T03:00:08;5.53;;;2.33;;
51467;SDS011;37545;45.302;-122.946;2022-11-18T03:02:41;4.90;;;1.95;;
51467;SDS011;37545;45.302;-122.946;2022-11-18T03:05:17;3.13;;;1.92;;
51467;SDS011;37545;45.302;-122.946;2022-11-18T03:07:53;6.80;;;2.10;;
51467;SDS011;37545;45.302;-122.946;2022-11-18T03:10:29;4.32;;;2.08;;
51467;SDS011;37545;45.302;-122.946;2022-11-18T03:13:03;7.55;;;2.40;;
51467;SDS011;37545;45.302;-122.946;2022-11-18T03:15:42;7.90;;;2.33;;
51467;SDS011;37545;45.302;-122.946;2022-11-18T03:18:19;5.72;;;2.50;;
51467;SDS011;37545;45.302;-122.946;2022-11-18T03:20:54;4.47;;;1.95;;
51467;SDS011;37545;45.302;-122.946;2022-11-18T03:23:30;5.25;;;1.88;;
51467;SDS011;37545;45.302;-122.946;2022-11-18T03:26:03;7.00;;;2.30;;
51467;SDS011;37545;45.302;-122.946;2022-11-18T03:28:37;5.63;;;1.98;;
51467;SDS011;37545;45.302;-122.946;2022-11-18T03:31:13;3.13;;;1.92;;
51467;SDS011;37545;45.302;-122.946;2022-11-18T03:33:48;7.50;;;2.65;;
51467;SDS011;37545;45.302;-122.946;2022-11-18T03:36:19;4.82;;;2.55;;
51467;SDS011;37545;45.302;-122.946;2022-11-18T03:38:53;5.65;;;2.28;;
51467;SDS011;37545;45.302;-122.946;2022-11-18T03:41:25;5.65;;;1.90;;
51467;SDS011;37545;45.302;-122.946;2022-11-18T03:43:59;6.43;;;2.22;;
51467;SDS011;37545;45.302;-122.946;2022-11-18T03:46:35;3.63;;;1.60;;
51467;SDS011;37545;45.302;-122.946;2022-11-18T03:49:17;3.15;;;1.67;;
51467;SDS011;37545;45.302;-122.946;2022-11-18T03:51:49;3.85;;;1.85;;
51467;SDS011;37545;45.302;-122.946;2022-11-18T03:54:23;4.38;;;2.00;;
51467;SDS011;37545;45.302;-122.946;2022-11-18T03:56:55;5.27;;;2.23;;
51467;SDS011;37545;45.302;-122.946;2022-11-18T03:59:28;3.17;;;1.90;;
51467;SDS011;37545;45.302;-122.946;2022-11-18T04:02:05;5.28;;;2.33;;
51467;SDS011;37545;45.302;-122.946;2022-11-18T04:04:39;7.75;;;2.40;;
51467;SDS011;37545;45.302;-122.946;2022-11-18T04:07:12;4.57;;;1.98;;
51467;SDS011;37545;45.302;-122.946;2022-11-18T04:09:52;7.28;;;2.63;;
51467;SDS011;37545;45.302;-122.946;2022-11-18T04:12:24;5.70;;;1.88;;
51467;SDS011;37545;45.302;-122.946;2022-11-18T04:14:57;4.78;;;2.45;;
51467;SDS011;37545;45.302;-122.946;2022-11-18T04:17:30;4.80;;;2.00;;
51467;SDS011;37545;45.302;-122.946;2022-11-18T04:19:59;3.15;;;2.20;;
51467;SDS011;37545;45.302;-122.946;2022-11-18T04:22:28;3.58;;;2.13;;
51467;SDS011;37545;45.302;-122.946;2022-11-18T04:24:56;5.35;;;1.90;;
51467;SDS011;37545;45.302;-122.946;2022-11-18T04:27:26;5.35;;;2.10;;
51467;SDS011;37545;45.302;-122.946;2022-11-18T04:29:54;6.07;;;2.80;;
51467;SDS011;37545;45.302;-122.946;2022-11-18T04:32:23;7.15;;;2.30;;
51467;SDS011;37545;45.302;-122.946;2022-11-18T04:34:53;4.40;;;2.05;;
51467;SDS011;37545;45.302;-122.946;2022-11-18T04:37:22;3.97;;;2.08;;
51467;SDS011;37545;45.302;-122.946;2022-11-18T04:39:51;5.13;;;2.13;;
51467;SDS011;37545;45.302;-122.946;2022-11-18T04:42:22;4.40;;;1.92;;
51467;SDS011;37545;45.302;-122.946;2022-11-18T04:44:51;4.43;;;2.55;;
51467;SDS011;37545;45.302;-122.946;2022-11-18T04:47:19;6.25;;;3.08;;
51467;SDS011;37545;45.302;-122.946;2022-11-18T04:49:48;4.80;;;1.70;;
51467;SDS011;37545;45.302;-122.946;2022-11-18T04:52:20;6.07;;;1.95;;
51467;SDS011;37545;45.302;-122.946;2022-11-18T04:54:49;3.65;;;1.70;;
51467;SDS011;37545;45.302;-122.946;2022-11-18T04:57:18;4.53;;;1.85;;
51467;SDS011;37545;45.302;-122.946;2022-11-18T04:59:47;5.45;;;2.53;;
51467;SDS011;37545;45.302;-122.946;2022-11-18T05:02:18;5.18;;;2.25;;
51467;SDS011;37545;45.302;-122.946;2022-11-18T05:04:46;5.00;;;1.92;;
51467;SDS011;37545;45.302;-122.946;2022-11-18T05:07:15;6.10;;;1.70;;
51467;SDS011;37545;45.302;-122.946;2022-11-18T05:09:46;5.93;;;2.20;;
51467;SDS011;37545;45.302;-122.946;2022-11-18T05:12:15;7.40;;;1.95;;
51467;SDS011;37545;45.302;-122.946;2022-11-18T05:15:00;4.38;;;1.63;;
51467;SDS011;37545;45.302;-122.946;2022-11-18T05:17:29;3.97;;;1.63;;
51467;SDS011;37545;45.302;-122.946;2022-11-18T05:19:58;4.03;;;2.00;;
51467;SDS011;37545;45.302;-122.946;2022-11-18T05:22:27;3.42;;;1.80;;
51467;SDS011;37545;45.302;-122.946;2022-11-18T05:24:57;7.25;;;2.40;;
51467;SDS011;37545;45.302;-122.946;2022-11-18T05:27:26;3.45;;;1.90;;
51467;SDS011;37545;45.302;-122.946;2022-11-18T05:29:55;4.38;;;2.20;;
51467;SDS011;37545;45.302;-122.946;2022-11-18T05:32:23;6.22;;;2.70;;
51467;SDS011;37545;45.302;-122.946;2022-11-18T05:34:52;5.05;;;1.98;;
51467;SDS011;37545;45.302;-122.946;2022-11-18T05:37:28;4.43;;;2.35;;
51467;SDS011;37545;45.302;-122.946;2022-11-18T05:40:01;5.72;;;2.13;;
51467;SDS011;37545;45.302;-122.946;2022-11-18T05:42:39;5.68;;;2.55;;
51467;SDS011;37545;45.302;-122.946;2022-11-18T05:45:25;5.00;;;1.90;;
51467;SDS011;37545;45.302;-122.946;2022-11-18T05:47:53;5.32;;;2.15;;
51467;SDS011;37545;45.302;-122.946;2022-11-18T05:50:29;3.53;;;2.10;;
51467;SDS011;37545;45.302;-122.946;2022-11-18T05:52:58;4.10;;;2.28;;
51467;SDS011;37545;45.302;-122.946;2022-11-18T05:55:30;6.00;;;2.35;;
51467;SDS011;37545;45.302;-122.946;2022-11-18T05:58:02;5.47;;;2.20;;
51467;SDS011;37545;45.302;-122.946;2022-11-18T06:00:30;6.47;;;1.70;;
51467;SDS011;37545;45.302;-122.946;2022-11-18T06:03:00;5.05;;;2.42;;
51467;SDS011;37545;45.302;-122.946;2022-11-18T06:05:29;7.97;;;2.25;;
51467;SDS011;37545;45.302;-122.946;2022-11-18T06:07:58;7.25;;;2.58;;
51467;SDS011;37545;45.302;-122.946;2022-11-18T06:10:27;2.72;;;1.85;;
51467;SDS011;37545;45.302;-122.946;2022-11-18T06:15:30;2.78;;;1.70;;
51467;SDS011;37545;45.302;-122.946;2022-11-18T06:20:32;4.88;;;2.00;;
51467;SDS011;37545;45.302;-122.946;2022-11-18T06:23:03;4.13;;;1.45;;
51467;SDS011;37545;45.302;-122.946;2022-11-18T06:25:34;3.83;;;2.22;;
51467;SDS011;37545;45.302;-122.946;2022-11-18T06:28:05;5.00;;;2.03;;
51467;SDS011;37545;45.302;-122.946;2022-11-18T06:30:36;3.60;;;1.40;;
51467;SDS011;37545;45.302;-122.946;2022-11-18T06:33:05;4.10;;;1.50;;
51467;SDS011;37545;45.302;-122.946;2022-11-18T06:35:33;4.78;;;1.90;;
51467;SDS011;37545;45.302;-122.946;2022-11-18T06:38:02;5.15;;;2.08;;
51467;SDS011;37545;45.302;-122.946;2022-11-18T06:40:31;3.85;;;1.80;;
51467;SDS011;37545;45.302;-122.946;2022-11-18T06:43:04;3.55;;;1.90;;
51467;SDS011;37545;45.302;-122.946;2022-11-18T06:45:49;8.57;;;1.70;;
51467;SDS011;37545;45.302;-122.946;2022-11-18T06:48:31;10.02;;;2.45;;
51467;SDS011;37545;45.302;-122.946;2022-11-18T06:51:03;7.38;;;2.03;;
51467;SDS011;37545;45.302;-122.946;2022-11-18T06:53:32;3.67;;;1.95;;
51467;SDS011;37545;45.302;-122.946;2022-11-18T06:56:03;4.47;;;2.08;;
51467;SDS011;37545;45.302;-122.946;2022-11-18T06:58:33;5.00;;;1.75;;
51467;SDS011;37545;45.302;-122.946;2022-11-18T07:01:07;6.72;;;1.95;;
51467;SDS011;37545;45.302;-122.946;2022-11-18T07:03:38;8.05;;;2.08;;
51467;SDS011;37545;45.302;-122.946;2022-11-18T07:06:07;3.85;;;1.60;;
51467;SDS011;37545;45.302;-122.946;2022-11-18T07:08:37;4.68;;;2.13;;
51467;SDS011;37545;45.302;-122.946;2022-11-18T07:13:53;5.03;;;1.80;;
51467;SDS011;37545;45.302;-122.946;2022-11-18T07:16:30;6.85;;;2.13;;
51467;SDS011;37545;45.302;-122.946;2022-11-18T07:19:01;4.82;;;1.83;;
51467;SDS011;37545;45.302;-122.946;2022-11-18T07:21:34;3.58;;;1.75;;
51467;SDS011;37545;45.302;-122.946;2022-11-18T07:24:04;5.63;;;2.22;;
51467;SDS011;37545;45.302;-122.946;2022-11-18T07:26:35;4.13;;;2.35;;
51467;SDS011;37545;45.302;-122.946;2022-11-18T07:29:04;5.05;;;2.20;;
51467;SDS011;37545;45.302;-122.946;2022-11-18T07:31:33;5.00;;;1.85;;
51467;SDS011;37545;45.302;-122.946;2022-11-18T07:34:07;6.75;;;2.10;;
51467;SDS011;37545;45.302;-122.946;2022-11-18T07:36:36;4.18;;;2.08;;
51467;SDS011;37545;45.302;-122.946;2022-11-18T07:39:05;3.50;;;1.70;;
51467;SDS011;37545;45.302;-122.946;2022-11-18T07:41:37;2.70;;;1.80;;
51467;SDS011;37545;45.302;-122.946;2022-11-18T07:46:38;5.70;;;2.40;;
51467;SDS011;37545;45.302;-122.946;2022-11-18T07:49:06;4.25;;;2.08;;
51467;SDS011;37545;45.302;-122.946;2022-11-18T07:51:36;3.58;;;1.50;;
51467;SDS011;37545;45.302;-122.946;2022-11-18T07:54:20;2.45;;;1.38;;
51467;SDS011;37545;45.302;-122.946;2022-11-18T07:56:57;3.72;;;1.38;;
51467;SDS011;37545;45.302;-122.946;2022-11-18T07:59:27;5.13;;;2.28;;
51467;SDS011;37545;45.302;-122.946;2022-11-18T08:01:56;3.63;;;2.10;;
51467;SDS011;37545;45.302;-122.946;2022-11-18T08:04:24;2.58;;;1.48;;
51467;SDS011;37545;45.302;-122.946;2022-11-18T08:06:55;2.92;;;1.38;;
51467;SDS011;37545;45.302;-122.946;2022-11-18T08:09:24;4.32;;;2.28;;
51467;SDS011;37545;45.302;-122.946;2022-11-18T08:11:52;6.10;;;1.80;;
51467;SDS011;37545;45.302;-122.946;2022-11-18T08:14:23;2.90;;;1.02;;
51467;SDS011;37545;45.302;-122.946;2022-11-18T08:16:51;6.70;;;1.48;;
51467;SDS011;37545;45.302;-122.946;2022-11-18T08:19:20;3.60;;;1.50;;
51467;SDS011;37545;45.302;-122.946;2022-11-18T08:21:49;4.88;;;2.22;;
51467;SDS011;37545;45.302;-122.946;2022-11-18T08:24:18;1.70;;;1.13;;
51467;SDS011;37545;45.302;-122.946;2022-11-18T08:26:46;5.25;;;2.15;;
51467;SDS011;37545;45.302;-122.946;2022-11-18T08:29:15;2.88;;;1.90;;
51467;SDS011;37545;45.302;-122.946;2022-11-18T08:31:45;2.65;;;1.30;;
51467;SDS011;37545;45.302;-122.946;2022-11-18T08:34:14;4.20;;;1.50;;
51467;SDS011;37545;45.302;-122.946;2022-11-18T08:36:45;6.25;;;1.75;;
51467;SDS011;37545;45.302;-122.946;2022-11-18T08:39:14;2.13;;;1.38;;
51467;SDS011;37545;45.302;-122.946;2022-11-18T08:41:43;3.47;;;1.63;;
51467;SDS011;37545;45.302;-122.946;2022-11-18T08:44:13;8.02;;;1.95;;
51467;SDS011;37545;45.302;-122.946;2022-11-18T08:46:43;3.83;;;1.90;;
51467;SDS011;37545;45.302;-122.946;2022-11-18T08:49:13;5.78;;;1.80;;
51467;SDS011;37545;45.302;-122.946;2022-11-18T08:51:42;2.33;;;1.27;;
51467;SDS011;37545;45.302;-122.946;2022-11-18T08:54:10;3.40;;;1.63;;
51467;SDS011;37545;45.302;-122.946;2022-11-18T08:56:39;2.50;;;1.33;;
51467;SDS011;37545;45.302;-122.946;2022-11-18T08:59:08;3.22;;;1.40;;
51467;SDS011;37545;45.302;-122.946;2022-11-18T09:01:37;2.50;;;1.25;;
51467;SDS011;37545;45.302;-122.946;2022-11-18T09:04:09;2.03;;;1.30;;
51467;SDS011;37545;45.302;-122.946;2022-11-18T09:06:38;5.13;;;1.67;;
51467;SDS011;37545;45.302;-122.946;2022-11-18T09:09:09;7.15;;;2.47;;
51467;SDS011;37545;45.302;-122.946;2022-11-18T09:11:38;4.50;;;1.83;;
51467;SDS011;37545;45.302;-122.946;2022-11-18T09:14:09;6.15;;;2.15;;
51467;SDS011;37545;45.302;-122.946;2022-11-18T09:16:38;2.97;;;1.47;;
51467;SDS011;37545;45.302;-122.946;2022-11-18T09:19:09;5.15;;;1.70;;
51467;SDS011;37545;45.302;-122.946;2022-11-18T09:21:41;3.58;;;1.80;;
51467;SDS011;37545;45.302;-122.946;2022-11-18T09:24:09;3.58;;;1.15;;
51467;SDS011;37545;45.302;-122.946;2022-11-18T09:26:38;3.92;;;2.13;;
51467;SDS011;37545;45.302;-122.946;2022-11-18T09:29:07;4.25;;;1.75;;
51467;SDS011;37545;45.302;-122.946;2022-11-18T09:31:36;5.30;;;1.52;;
51467;SDS011;37545;45.302;-122.946;2022-11-18T09:34:05;3.72;;;1.75;;
51467;SDS011;37545;45.302;-122.946;2022-11-18T09:36:36;5.13;;;2.25;;
51467;SDS011;37545;45.302;-122.946;2022-11-18T09:39:05;5.90;;;1.95;;
51467;SDS011;37545;45.302;-122.946;2022-11-18T09:41:37;2.85;;;1.50;;
51467;SDS011;37545;45.302;-122.946;2022-11-18T09:44:15;2.90;;;1.85;;
51467;SDS011;37545;45.302;-122.946;2022-11-18T09:46:55;2.20;;;1.52;;
51467;SDS011;37545;45.302;-122.946;2022-11-18T09:49:33;4.15;;;1.30;;
51467;SDS011;37545;45.302;-122.946;2022-11-18T09:52:08;4.78;;;1.90;;
51467;SDS011;37545;45.302;-122.946;2022-11-18T09:54:42;3.20;;;1.23;;
51467;SDS011;37545;45.302;-122.946;2022-11-18T09:57:12;2.53;;;1.23;;
51467;SDS011;37545;45.302;-122.946;2022-11-18T09:59:42;3.20;;;1.33;;
51467;SDS011;37545;45.302;-122.946;2022-11-18T10:02:21;2.83;;;1.30;;
51467;SDS011;37545;45.302;-122.946;2022-11-18T10:04:56;4.32;;;1.85;;
51467;SDS011;37545;45.302;-122.946;2022-11-18T10:07:42;1.88;;;1.27;;
51467;SDS011;37545;45.302;-122.946;2022-11-18T10:10:21;3.30;;;1.30;;
51467;SDS011;37545;45.302;-122.946;2022-11-18T10:12:58;2.10;;;1.15;;
51467;SDS011;37545;45.302;-122.946;2022-11-18T10:15:31;3.83;;;1.65;;
51467;SDS011;37545;45.302;-122.946;2022-11-18T10:18:14;5.30;;;1.52;;
51467;SDS011;37545;45.302;-122.946;2022-11-18T10:20:50;4.90;;;1.75;;
51467;SDS011;37545;45.302;-122.946;2022-11-18T10:23:27;3.65;;;1.30;;
51467;SDS011;37545;45.302;-122.946;2022-11-18T10:25:59;4.30;;;1.23;;
51467;SDS011;37545;45.302;-122.946;2022-11-18T10:28:28;3.05;;;1.58;;
51467;SDS011;37545;45.302;-122.946;2022-11-18T10:31:03;3.53;;;1.42;;
51467;SDS011;37545;45.302;-122.946;2022-11-18T10:33:32;3.17;;;1.52;;
51467;SDS011;37545;45.302;-122.946;2022-11-18T10:36:08;3.20;;;1.05;;
51467;SDS011;37545;45.302;-122.946;2022-11-18T10:38:46;1.85;;;1.05;;
51467;SDS011;37545;45.302;-122.946;2022-11-18T10:41:15;3.05;;;1.98;;
51467;SDS011;37545;45.302;-122.946;2022-11-18T10:43:48;3.45;;;1.80;;
51467;SDS011;37545;45.302;-122.946;2022-11-18T10:46:21;3.40;;;1.58;;
51467;SDS011;37545;45.302;-122.946;2022-11-18T10:51:41;4.05;;;1.75;;
51467;SDS011;37545;45.302;-122.946;2022-11-18T10:54:15;1.98;;;1.13;;
51467;SDS011;37545;45.302;-122.946;2022-11-18T10:56:49;2.63;;;1.20;;
51467;SDS011;37545;45.302;-122.946;2022-11-18T10:59:23;3.40;;;1.48;;
51467;SDS011;37545;45.302;-122.946;2022-11-18T11:02:00;3.55;;;1.55;;
51467;SDS011;37545;45.302;-122.946;2022-11-18T11:04:39;4.88;;;1.33;;
51467;SDS011;37545;45.302;-122.946;2022-11-18T11:07:15;3.00;;;1.00;;
51467;SDS011;37545;45.302;-122.946;2022-11-18T11:10:12;5.03;;;1.73;;
51467;SDS011;37545;45.302;-122.946;2022-11-18T11:12:49;2.78;;;1.33;;
51467;SDS011;37545;45.302;-122.946;2022-11-18T11:15:26;4.75;;;1.48;;
51467;SDS011;37545;45.302;-122.946;2022-11-18T11:18:02;4.30;;;1.90;;
51467;SDS011;37545;45.302;-122.946;2022-11-18T11:20:50;3.85;;;1.65;;
51467;SDS011;37545;45.302;-122.946;2022-11-18T11:23:19;1.88;;;1.27;;
51467;SDS011;37545;45.302;-122.946;2022-11-18T11:25:53;2.92;;;1.65;;
51467;SDS011;37545;45.302;-122.946;2022-11-18T11:28:27;3.65;;;1.50;;
51467;SDS011;37545;45.302;-122.946;2022-11-18T11:31:02;4.25;;;1.58;;
51467;SDS011;37545;45.302;-122.946;2022-11-18T11:33:38;2.70;;;1.70;;
51467;SDS011;37545;45.302;-122.946;2022-11-18T11:36:21;3.97;;;1.70;;
51467;SDS011;37545;45.302;-122.946;2022-11-18T11:39:08;4.82;;;1.98;;
51467;SDS011;37545;45.302;-122.946;2022-11-18T11:41:57;2.80;;;1.67;;
51467;SDS011;37545;45.302;-122.946;2022-11-18T11:44:39;3.45;;;1.50;;
51467;SDS011;37545;45.302;-122.946;2022-11-18T11:47:21;3.00;;;1.27;;
51467;SDS011;37545;45.302;-122.946;2022-11-18T11:50:18;5.00;;;1.52;;
51467;SDS011;37545;45.302;-122.946;2022-11-18T11:53:10;5.07;;;1.55;;
51467;SDS011;37545;45.302;-122.946;2022-11-18T11:55:50;3.55;;;1.77;;
51467;SDS011;37545;45.302;-122.946;2022-11-18T11:58:41;3.13;;;1.65;;
51467;SDS011;37545;45.302;-122.946;2022-11-18T12:01:30;7.85;;;2.80;;
51467;SDS011;37545;45.302;-122.946;2022-11-18T12:04:07;2.80;;;1.25;;
51467;SDS011;37545;45.302;-122.946;2022-11-18T12:06:49;4.25;;;1.92;;
51467;SDS011;37545;45.302;-122.946;2022-11-18T12:09:25;3.85;;;2.10;;
51467;SDS011;37545;45.302;-122.946;2022-11-18T12:12:06;2.70;;;1.10;;
51467;SDS011;37545;45.302;-122.946;2022-11-18T12:14:55;3.67;;;1.67;;
51467;SDS011;37545;45.302;-122.946;2022-11-18T12:17:29;2.95;;;1.80;;
51467;SDS011;37545;45.302;-122.946;2022-11-18T12:23:11;2.40;;;1.58;;
51467;SDS011;37545;45.302;-122.946;2022-11-18T12:25:49;3.08;;;1.58;;
51467;SDS011;37545;45.302;-122.946;2022-11-18T12:28:28;3.15;;;1.70;;
51467;SDS011;37545;45.302;-122.946;2022-11-18T12:34:04;4.30;;;1.45;;
51467;SDS011;37545;45.302;-122.946;2022-11-18T12:36:48;5.85;;;1.95;;
51467;SDS011;37545;45.302;-122.946;2022-11-18T12:42:35;4.40;;;1.85;;
51467;SDS011;37545;45.302;-122.946;2022-11-18T12:48:33;4.57;;;1.83;;
51467;SDS011;37545;45.302;-122.946;2022-11-18T12:54:24;2.50;;;1.30;;
51467;SDS011;37545;45.302;-122.946;2022-11-18T12:56:57;6.72;;;2.15;;
51467;SDS011;37545;45.302;-122.946;2022-11-18T12:59:29;1.58;;;0.68;;
51467;SDS011;37545;45.302;-122.946;2022-11-18T13:02:19;3.92;;;1.38;;
51467;SDS011;37545;45.302;-122.946;2022-11-18T13:05:04;6.57;;;1.50;;
51467;SDS011;37545;45.302;-122.946;2022-11-18T13:07:38;1.88;;;1.17;;
51467;SDS011;37545;45.302;-122.946;2022-11-18T13:10:28;3.05;;;1.70;;
51467;SDS011;37545;45.302;-122.946;2022-11-18T13:12:59;3.25;;;1.50;;
51467;SDS011;37545;45.302;-122.946;2022-11-18T13:15:29;3.65;;;1.52;;
51467;SDS011;37545;45.302;-122.946;2022-11-18T13:18:15;3.20;;;1.60;;
51467;SDS011;37545;45.302;-122.946;2022-11-18T13:20:54;4.20;;;1.58;;
51467;SDS011;37545;45.302;-122.946;2022-11-18T13:23:25;3.30;;;1.60;;
51467;SDS011;37545;45.302;-122.946;2022-11-18T13:26:14;3.20;;;1.60;;
51467;SDS011;37545;45.302;-122.946;2022-11-18T13:28:51;4.88;;;1.63;;
51467;SDS011;37545;45.302;-122.946;2022-11-18T13:31:32;2.40;;;1.30;;
51467;SDS011;37545;45.302;-122.946;2022-11-18T13:34:09;4.22;;;1.60;;
51467;SDS011;37545;45.302;-122.946;2022-11-18T13:36:46;3.83;;;1.38;;
51467;SDS011;37545;45.302;-122.946;2022-11-18T13:39:18;3.28;;;1.55;;
51467;SDS011;37545;45.302;-122.946;2022-11-18T13:42:02;4.95;;;1.33;;
51467;SDS011;37545;45.302;-122.946;2022-11-18T13:44:32;5.88;;;1.45;;
51467;SDS011;37545;45.302;-122.946;2022-11-18T13:47:06;2.28;;;1.30;;
51467;SDS011;37545;45.302;-122.946;2022-11-18T13:49:45;3.83;;;1.85;;
51467;SDS011;37545;45.302;-122.946;2022-11-18T13:52:20;2.80;;;1.20;;
51467;SDS011;37545;45.302;-122.946;2022-11-18T13:54:54;1.80;;;1.55;;
51467;SDS011;37545;45.302;-122.946;2022-11-18T13:57:24;2.75;;;1.38;;
51467;SDS011;37545;45.302;-122.946;2022-11-18T13:59:55;3.33;;;1.65;;
51467;SDS011;37545;45.302;-122.946;2022-11-18T14:02:30;4.05;;;1.70;;
51467;SDS011;37545;45.302;-122.946;2022-11-18T14:05:14;5.53;;;1.73;;
51467;SDS011;37545;45.302;-122.946;2022-11-18T14:07:55;6.25;;;1.58;;
51467;SDS011;37545;45.302;-122.946;2022-11-18T14:10:28;3.83;;;1.33;;
51467;SDS011;37545;45.302;-122.946;2022-11-18T14:13:13;1.50;;;1.02;;
51467;SDS011;37545;45.302;-122.946;2022-11-18T14:15:45;1.25;;;0.95;;
51467;SDS011;37545;45.302;-122.946;2022-11-18T14:18:18;3.28;;;1.05;;
51467;SDS011;37545;45.302;-122.946;2022-11-18T14:20:52;5.07;;;0.90;;
51467;SDS011;37545;45.302;-122.946;2022-11-18T14:23:25;2.55;;;1.30;;
51467;SDS011;37545;45.302;-122.946;2022-11-18T14:25:56;4.30;;;1.38;;
51467;SDS011;37545;45.302;-122.946;2022-11-18T14:28:26;3.55;;;1.20;;
51467;SDS011;37545;45.302;-122.946;2022-11-18T14:31:06;2.42;;;0.95;;
51467;SDS011;37545;45.302;-122.946;2022-11-18T14:34:05;4.03;;;1.73;;
51467;SDS011;37545;45.302;-122.946;2022-11-18T14:36:48;3.60;;;1.60;;
51467;SDS011;37545;45.302;-122.946;2022-11-18T14:39:21;3.05;;;1.52;;
51467;SDS011;37545;45.302;-122.946;2022-11-18T14:44:19;2.80;;;1.23;;
51467;SDS011;37545;45.302;-122.946;2022-11-18T14:46:49;1.20;;;1.10;;
51467;SDS011;37545;45.302;-122.946;2022-11-18T14:49:20;1.83;;;1.15;;
51467;SDS011;37545;45.302;-122.946;2022-11-18T14:51:51;3.75;;;0.98;;
51467;SDS011;37545;45.302;-122.946;2022-11-18T14:54:23;5.00;;;1.25;;
51467;SDS011;37545;45.302;-122.946;2022-11-18T14:56:53;1.73;;;0.80;;
51467;SDS011;37545;45.302;-122.946;2022-11-18T14:59:24;2.65;;;1.30;;
51467;SDS011;37545;45.302;-122.946;2022-11-18T15:01:53;1.05;;;0.82;;
51467;SDS011;37545;45.302;-122.946;2022-11-18T15:04:23;5.32;;;1.00;;
51467;SDS011;37545;45.302;-122.946;2022-11-18T15:06:52;2.72;;;1.73;;
51467;SDS011;37545;45.302;-122.946;2022-11-18T15:09:22;1.67;;;1.08;;
51467;SDS011;37545;45.302;-122.946;2022-11-18T15:11:51;3.63;;;1.52;;
51467;SDS011;37545;45.302;-122.946;2022-11-18T15:14:29;3.70;;;1.40;;
51467;SDS011;37545;45.302;-122.946;2022-11-18T15:16:57;2.17;;;1.13;;
51467;SDS011;37545;45.302;-122.946;2022-11-18T15:19:33;3.97;;;1.05;;
51467;SDS011;37545;45.302;-122.946;2022-11-18T15:22:01;2.63;;;1.00;;
51467;SDS011;37545;45.302;-122.946;2022-11-18T15:24:32;2.70;;;1.30;;